Time;durP1;ratioP1;P1;durP2;ratioP2;P2;SDS_P1;SDS_P2;PMS_P1;PMS_P2;Temp;Humidity;BMP_temperature;BMP_pressure;BME280_temperature;BME280_humidity;BME280_pressure;Samples;Min_cycle;Max_cycle;Signal;HPM_P1;HPM_P2
2023/07/13 00:01:49;;;;;;;;;;;23.40;62.60;;;23.52;40.40;98598.34;4984892;28;114452;-82
2023/07/13 00:04:24;;;;;;;;;;;23.30;62.60;;;23.48;40.29;98603.16;4988739;28;112735;-82
2023/07/13 00:06:52;;;;;;;;;;;23.30;62.70;;;23.45;40.52;98601.16;4988851;28;124437;-82
2023/07/13 00:09:20;;;;;;;;;;;23.30;62.80;;;23.41;40.87;98606.00;4986210;28;123766;-83
2023/07/13 00:11:51;;;;;;;;;;;23.20;62.80;;;23.35;40.60;98597.94;4984405;28;114464;-83
2023/07/13 00:14:18;;;;;;;;;;;23.20;62.80;;;23.33;40.65;98599.56;4976797;28;113936;-82
2023/07/13 00:16:44;;;;;;;;;;;23.10;62.80;;;23.28;40.76;98592.28;4988996;28;124073;-82
2023/07/13 00:19:11;;;;;;;;;;;23.10;62.80;;;23.27;40.44;98590.69;4988438;28;123685;-82
2023/07/13 00:21:39;;;;;;;;;;;23.10;62.80;;;23.24;40.74;98585.88;4988637;28;114438;-81
2023/07/13 00:24:06;;;;;;;;;;;23.10;62.90;;;23.21;40.89;98592.28;4989608;28;113136;-82
2023/07/13 00:26:35;;;;;;;;;;;23.10;63.00;;;23.20;40.54;98587.06;4974114;28;123228;-82
2023/07/13 00:29:01;;;;;;;;;;;23.00;62.80;;;23.15;40.51;98588.28;4974341;28;123265;-82
2023/07/13 00:31:30;;;;;;;;;;;23.00;62.80;;;23.14;40.75;98587.47;4985640;28;115973;-82
2023/07/13 00:33:56;;;;;;;;;;;23.00;62.70;;;23.08;40.68;98593.91;4989215;28;114187;-82
2023/07/13 00:36:23;;;;;;;;;;;22.90;62.80;;;23.05;40.56;98591.88;4988371;28;124245;-82
2023/07/13 00:38:49;;;;;;;;;;;22.90;62.80;;;22.99;40.81;98596.31;4988619;28;123940;-83
2023/07/13 00:41:17;;;;;;;;;;;22.80;62.70;;;22.96;40.69;98592.28;4987762;28;114454;-82
2023/07/13 00:43:44;;;;;;;;;;;22.80;62.80;;;22.93;40.90;98598.69;4986185;28;114414;-82
2023/07/13 00:46:17;;;;;;;;;;;22.80;62.80;;;22.89;40.80;98595.88;4986643;28;124291;-83
2023/07/13 00:48:44;;;;;;;;;;;22.70;62.90;;;22.88;40.78;98599.88;4985981;28;124031;-82
2023/07/13 00:51:11;;;;;;;;;;;22.70;62.80;;;22.86;40.88;98610.78;4984851;28;114394;-82
2023/07/13 00:53:37;;;;;;;;;;;22.70;62.80;;;22.84;40.75;98604.72;4986756;28;113882;-82
2023/07/13 00:56:03;;;;;;;;;;;22.60;62.80;;;22.83;40.52;98611.53;4986577;28;124332;-83
2023/07/13 00:58:30;;;;;;;;;;;22.60;62.70;;;22.84;40.68;98615.19;4986696;28;124039;-83
2023/07/13 01:00:56;;;;;;;;;;;22.60;62.70;;;22.82;40.74;98614.78;4986023;28;114643;-83
2023/07/13 01:03:23;;;;;;;;;;;22.60;62.70;;;22.79;40.63;98616.38;4983531;28;113685;-83
2023/07/13 01:05:50;;;;;;;;;;;22.60;62.50;;;22.79;40.40;98619.19;4988821;28;124201;-82
2023/07/13 01:08:16;;;;;;;;;;;22.60;62.50;;;22.82;40.62;98621.22;4985865;28;123685;-82
2023/07/13 01:10:54;;;;;;;;;;;22.60;62.70;;;22.83;40.43;98619.19;4987344;28;114339;-83
2023/07/13 01:13:20;;;;;;;;;;;22.60;62.30;;;22.80;40.55;98620.78;4986131;28;113722;-83
2023/07/13 01:15:49;;;;;;;;;;;22.60;62.30;;;22.78;40.29;98625.22;4989880;28;124814;-83
2023/07/13 01:18:26;;;;;;;;;;;22.60;62.20;;;22.78;40.53;98630.84;4988213;28;123781;-83
2023/07/13 01:20:57;;;;;;;;;;;22.60;62.20;;;22.81;40.29;98621.59;4986131;28;115610;-83
2023/07/13 01:23:24;;;;;;;;;;;22.60;62.20;;;22.80;40.22;98620.78;4986324;28;114789;-83
2023/07/13 01:25:53;;;;;;;;;;;22.60;62.10;;;22.83;39.99;98622.81;4988589;28;124893;-83
2023/07/13 01:28:19;;;;;;;;;;;22.60;62.10;;;22.84;40.15;98627.25;4986689;28;123599;-83
2023/07/13 01:30:46;;;;;;;;;;;22.60;61.90;;;22.86;39.93;98627.69;4984673;28;114137;-83
2023/07/13 01:33:14;;;;;;;;;;;22.60;61.80;;;22.85;39.96;98623.22;4987744;28;113455;-83
2023/07/13 01:35:41;;;;;;;;;;;22.60;62.10;;;22.84;39.82;98623.66;4986155;28;127574;-83
2023/07/13 01:38:08;;;;;;;;;;;22.60;61.60;;;22.83;39.52;98634.09;4987834;28;123836;-83
2023/07/13 01:40:35;;;;;;;;;;;22.60;61.40;;;22.82;39.64;98629.66;4987525;28;115170;-83
2023/07/13 01:43:01;;;;;;;;;;;22.50;61.20;;;22.81;39.61;98636.50;4984172;28;116112;-83
2023/07/13 01:45:28;;;;;;;;;;;22.60;61.40;;;22.81;39.88;98636.50;4972340;28;123655;-83
2023/07/13 01:47:54;;;;;;;;;;;22.50;61.30;;;22.83;39.66;98634.09;4987844;28;124372;-83
2023/07/13 01:50:22;;;;;;;;;;;22.60;61.30;;;22.85;39.53;98626.03;4989293;28;113322;-83
2023/07/13 01:52:49;;;;;;;;;;;22.60;61.30;;;22.82;39.38;98638.13;4989208;28;113443;-83
2023/07/13 01:55:15;;;;;;;;;;;22.60;61.80;;;22.83;39.72;98633.28;4987585;28;124195;-84
2023/07/13 01:57:41;;;;;;;;;;;22.50;61.20;;;22.84;39.70;98629.28;4986064;28;123915;-83
2023/07/13 02:00:12;;;;;;;;;;;22.50;61.30;;;22.84;39.85;98630.06;4990714;28;114393;-83
2023/07/13 02:02:38;;;;;;;;;;;22.60;61.50;;;22.87;39.72;98629.28;4993130;28;113526;-83
2023/07/13 02:05:07;;;;;;;;;;;22.60;61.50;;;22.89;39.74;98638.13;4991041;28;124288;-84
2023/07/13 02:07:34;;;;;;;;;;;22.60;61.60;;;22.88;39.77;98633.69;4994332;28;123795;-83
2023/07/13 02:10:02;;;;;;;;;;;22.60;61.40;;;22.89;39.60;98643.78;4990077;28;115377;-83
2023/07/13 02:12:28;;;;;;;;;;;22.60;61.30;;;22.89;39.34;98638.13;4990501;28;114723;-83
2023/07/13 02:14:54;;;;;;;;;;;22.60;61.10;;;22.89;39.32;98642.94;4991506;28;124958;-83
2023/07/13 02:17:21;;;;;;;;;;;22.60;61.00;;;22.89;39.36;98651.41;4991229;28;123811;-83
2023/07/13 02:19:47;;;;;;;;;;;22.60;61.00;;;22.91;39.48;98644.16;5004837;28;114883;-83
2023/07/13 02:22:14;;;;;;;;;;;22.60;61.00;;;22.90;39.45;98653.81;4989368;28;112667;-83
2023/07/13 02:24:42;;;;;;;;;;;22.60;60.90;;;22.88;39.27;98639.31;4987011;28;122260;-83
2023/07/13 02:27:11;;;;;;;;;;;22.60;60.80;;;22.88;39.54;98655.44;4991071;28;123980;-83
2023/07/13 02:29:40;;;;;;;;;;;22.60;60.90;;;22.88;39.24;98653.41;4991617;28;114213;-83
2023/07/13 02:32:07;;;;;;;;;;;22.60;60.90;;;22.86;39.22;98655.84;4990451;28;113702;-84
2023/07/13 02:34:36;;;;;;;;;;;22.50;60.80;;;22.86;39.69;98655.03;4979744;28;123945;-83
2023/07/13 02:37:03;;;;;;;;;;;22.50;60.90;;;22.85;39.62;98648.59;4991224;28;123412;-84
2023/07/13 02:39:29;;;;;;;;;;;22.50;61.10;;;22.85;39.81;98648.59;4993731;28;114606;-83
2023/07/13 02:41:58;;;;;;;;;;;22.60;61.40;;;22.83;39.87;98662.25;4988388;28;113575;-83
2023/07/13 02:44:24;;;;;;;;;;;22.50;61.60;;;22.79;40.27;98655.81;4989785;28;123997;-83
2023/07/13 02:46:51;;;;;;;;;;;22.50;61.90;;;22.74;40.78;98658.22;4990241;28;124118;-84
2023/07/13 02:49:17;;;;;;;;;;;22.50;62.40;;;22.73;40.64;98660.22;4990425;28;114682;-84
2023/07/13 02:51:43;;;;;;;;;;;22.50;62.60;;;22.72;40.60;98662.22;4989636;28;113583;-84
2023/07/13 02:54:10;;;;;;;;;;;22.50;62.70;;;22.74;40.85;98659.03;4990216;28;124109;-83
2023/07/13 02:56:38;;;;;;;;;;;22.50;62.80;;;22.74;40.87;98659.03;4989232;28;124046;-83
2023/07/13 02:59:04;;;;;;;;;;;22.30;62.50;;;22.73;40.65;98660.22;4989624;28;115583;-83
2023/07/13 03:01:34;;;;;;;;;;;22.50;62.70;;;22.73;40.56;98657.41;4989836;28;114379;-83
2023/07/13 03:04:03;;;;;;;;;;;22.40;62.70;;;22.73;40.81;98663.06;4989154;28;124800;-83
2023/07/13 03:06:33;;;;;;;;;;;22.50;62.80;;;22.72;40.82;98672.69;4990502;28;123962;-84
2023/07/13 03:09:03;;;;;;;;;;;22.40;62.80;;;22.71;40.69;98668.28;4988606;28;113729;-84
2023/07/13 03:11:30;;;;;;;;;;;22.40;62.80;;;22.71;41.00;98673.91;4983923;28;113782;-83
2023/07/13 03:13:56;;;;;;;;;;;22.50;63.10;;;22.71;40.81;98676.72;4989619;28;124042;-83
2023/07/13 03:16:23;;;;;;;;;;;22.40;63.20;;;22.71;41.09;98676.72;4972043;28;124066;-83
2023/07/13 03:18:51;;;;;;;;;;;22.40;63.30;;;22.70;41.05;98680.72;4983197;28;114537;-83
2023/07/13 03:21:17;;;;;;;;;;;22.40;63.30;;;22.69;40.99;98677.09;4987901;28;114375;-83
2023/07/13 03:23:44;;;;;;;;;;;22.40;63.40;;;22.68;41.18;98677.53;4980462;28;124303;-83
2023/07/13 03:26:18;;;;;;;;;;;22.40;63.40;;;22.65;41.00;98678.31;4984394;28;124722;-83
2023/07/13 03:28:44;;;;;;;;;;;22.40;63.40;;;22.62;41.03;98687.53;4988287;28;114405;-83
2023/07/13 03:31:14;;;;;;;;;;;22.30;63.30;;;22.61;41.02;98691.56;4989281;28;113532;-83
2023/07/13 03:33:41;;;;;;;;;;;22.30;63.40;;;22.59;41.19;98702.41;4968154;28;123885;-83
2023/07/13 03:36:12;;;;;;;;;;;22.30;63.40;;;22.55;41.10;98699.59;4982830;28;124004;-84
2023/07/13 03:38:38;;;;;;;;;;;22.30;63.40;;;22.54;40.99;98699.97;4989257;28;115258;-83
2023/07/13 03:41:05;;;;;;;;;;;22.30;63.50;;;22.55;41.09;98699.59;4989823;28;113664;-83
2023/07/13 03:43:31;;;;;;;;;;;22.30;63.40;;;22.54;41.10;98705.59;4989303;28;124706;-84
2023/07/13 03:45:59;;;;;;;;;;;22.30;63.40;;;22.53;40.99;98707.63;4989110;28;123918;-84
2023/07/13 03:48:26;;;;;;;;;;;22.20;63.20;;;22.53;40.83;98701.97;4989126;28;115238;-84
2023/07/13 03:50:52;;;;;;;;;;;22.30;63.30;;;22.55;40.79;98707.22;4990918;28;113708;-83
2023/07/13 03:53:19;;;;;;;;;;;22.20;63.20;;;22.54;40.76;98708.41;4987070;28;124572;-83
2023/07/13 03:55:45;;;;;;;;;;;22.20;63.10;;;22.54;40.85;98719.69;4988859;28;124169;-83
2023/07/13 03:58:34;;;;;;;;;;;22.30;63.20;;;22.52;40.75;98713.66;4989400;28;114660;-83
2023/07/13 04:01:05;;;;;;;;;;;22.20;63.10;;;22.53;40.78;98716.06;4987049;28;114034;-84
2023/07/13 04:03:32;;;;;;;;;;;22.20;63.10;;;22.54;40.84;98711.22;4986907;28;124468;-84
2023/07/13 04:06:02;;;;;;;;;;;22.20;63.00;;;22.55;40.86;98712.88;4973389;28;123950;-84
2023/07/13 04:08:30;;;;;;;;;;;22.20;62.90;;;22.56;40.88;98720.09;4989429;28;114606;-83
2023/07/13 04:10:58;;;;;;;;;;;22.20;62.90;;;22.56;40.80;98709.63;4987586;28;113832;-83
2023/07/13 04:13:24;;;;;;;;;;;22.20;63.00;;;22.57;40.87;98721.69;4986823;28;124171;-83
2023/07/13 04:15:51;;;;;;;;;;;22.20;63.00;;;22.58;40.76;98718.50;4987441;28;123875;-83
2023/07/13 04:18:19;;;;;;;;;;;22.20;63.00;;;22.56;40.60;98714.47;4989757;28;114187;-82
2023/07/13 04:20:49;;;;;;;;;;;22.30;62.80;;;22.54;40.31;98714.88;4991526;28;113647;-83
2023/07/13 04:23:18;;;;;;;;;;;22.20;62.50;;;22.47;40.08;98721.25;4985716;28;123757;-83
2023/07/13 04:25:52;;;;;;;;;;;22.20;62.20;;;22.41;40.24;98720.03;4990229;28;124560;-83
2023/07/13 04:28:27;;;;;;;;;;;22.20;62.00;;;22.36;40.29;98723.22;4990497;28;114128;-85
2023/07/13 04:30:54;;;;;;;;;;;22.10;62.00;;;22.31;40.43;98726.41;4991785;28;113527;-84
2023/07/13 04:33:23;;;;;;;;;;;22.10;61.90;;;22.22;40.36;98728.78;4987352;28;124304;-84
2023/07/13 04:35:54;;;;;;;;;;;22.00;61.70;;;22.18;40.23;98733.53;4988365;28;123962;-84
2023/07/13 04:38:20;;;;;;;;;;;22.00;61.90;;;22.15;40.39;98728.69;4989927;28;115416;-83
2023/07/13 04:40:47;;;;;;;;;;;22.00;62.00;;;22.12;40.58;98730.28;4988703;28;115199;-84
2023/07/13 04:43:13;;;;;;;;;;;22.00;62.00;;;22.11;40.85;98733.47;4986931;28;124705;-84
2023/07/13 04:45:41;;;;;;;;;;;22.00;62.30;;;22.11;41.00;98733.47;4988350;28;124520;-84
2023/07/13 04:48:09;;;;;;;;;;;21.90;62.80;;;22.14;40.79;98732.69;4988632;28;114488;-84
2023/07/13 04:50:37;;;;;;;;;;;21.90;62.70;;;22.15;40.98;98731.50;4987744;28;113658;-83
2023/07/13 04:53:03;;;;;;;;;;;21.90;62.70;;;22.15;40.98;98742.75;4968692;28;123748;-83
2023/07/13 04:55:30;;;;;;;;;;;21.90;62.70;;;22.16;40.76;98733.09;4987734;28;124654;-83
2023/07/13 04:57:58;;;;;;;;;;;21.90;62.70;;;22.19;41.09;98737.97;4988441;28;114962;-83
2023/07/13 05:00:27;;;;;;;;;;;21.90;62.90;;;22.22;41.00;98742.84;4987658;28;114114;-83
2023/07/13 05:02:57;;;;;;;;;;;21.90;63.00;;;22.24;41.01;98738.41;4987495;28;123510;-83
2023/07/13 05:05:24;;;;;;;;;;;21.90;63.00;;;22.26;40.92;98735.22;4986653;28;124588;-82
2023/07/13 05:07:53;;;;;;;;;;;22.00;63.10;;;22.29;41.34;98742.88;4986380;28;114925;-83
2023/07/13 05:10:20;;;;;;;;;;;21.90;63.10;;;22.30;40.67;98744.50;4990204;28;113473;-83
2023/07/13 05:12:46;;;;;;;;;;;22.00;63.20;;;22.31;40.85;98737.66;4983888;28;124736;-82
2023/07/13 05:15:12;;;;;;;;;;;22.00;63.10;;;22.33;41.09;98751.38;4985878;28;123678;-83
2023/07/13 05:17:40;;;;;;;;;;;22.00;63.10;;;22.35;40.75;98751.75;4973594;28;114187;-82
2023/07/13 05:20:10;;;;;;;;;;;22.00;63.10;;;22.36;40.92;98750.56;4989414;28;114421;-82
2023/07/13 05:22:36;;;;;;;;;;;22.00;63.10;;;22.36;40.66;98747.75;4984491;28;124433;-83
2023/07/13 05:25:06;;;;;;;;;;;22.00;62.90;;;22.36;40.89;98754.19;4972276;28;124193;-82
2023/07/13 05:27:34;;;;;;;;;;;22.00;63.10;;;22.38;40.81;98751.78;4990940;28;115529;-82
2023/07/13 05:30:01;;;;;;;;;;;22.00;63.10;;;22.39;40.31;98755.41;4985139;28;114784;-83
2023/07/13 05:32:27;;;;;;;;;;;22.10;63.10;;;22.40;40.50;98749.38;4979033;28;123438;-82
2023/07/13 05:34:54;;;;;;;;;;;22.10;63.00;;;22.39;40.63;98750.59;4987821;28;124507;-84
2023/07/13 05:37:20;;;;;;;;;;;22.10;62.90;;;22.39;40.35;98744.16;4981941;28;114434;-84
2023/07/13 05:39:48;;;;;;;;;;;22.00;62.60;;;22.36;40.30;98757.00;4988817;28;112690;-83
2023/07/13 05:42:15;;;;;;;;;;;22.00;62.50;;;22.35;40.78;98754.56;4987579;28;124634;-84
2023/07/13 05:44:41;;;;;;;;;;;22.00;62.50;;;22.32;40.58;98756.16;4985841;28;124457;-83
2023/07/13 05:47:07;;;;;;;;;;;22.00;62.50;;;22.31;40.60;98753.75;4986627;28;114153;-82
2023/07/13 05:49:34;;;;;;;;;;;22.00;62.60;;;22.31;40.63;98765.81;4987540;28;113624;-83
2023/07/13 05:52:02;;;;;;;;;;;22.00;62.50;;;22.28;40.12;98766.59;4986460;28;125185;-83
2023/07/13 05:54:29;;;;;;;;;;;22.00;62.40;;;22.29;40.37;98762.56;4983932;28;124431;-83
2023/07/13 05:56:55;;;;;;;;;;;22.00;62.40;;;22.28;40.45;98752.53;4987296;28;114382;-83
2023/07/13 05:59:22;;;;;;;;;;;22.00;62.50;;;22.33;40.76;98757.00;4986537;28;114625;-82
2023/07/13 06:01:49;;;;;;;;;;;22.00;62.60;;;22.35;40.60;98766.63;4982478;28;124278;-82
2023/07/13 06:04:16;;;;;;;;;;;22.00;62.60;;;22.35;40.49;98763.00;4982634;28;123879;-83
2023/07/13 06:06:42;;;;;;;;;;;22.00;62.50;;;22.37;40.54;98769.06;4967139;28;114572;-83
2023/07/13 06:09:08;;;;;;;;;;;22.00;62.60;;;22.38;40.62;98765.03;4987727;28;113901;-83
2023/07/13 06:11:37;;;;;;;;;;;22.10;62.70;;;22.43;40.49;98778.75;4985870;28;124512;-82
2023/07/13 06:14:03;;;;;;;;;;;22.10;62.70;;;22.47;40.43;98783.22;4988759;28;123979;-83
2023/07/13 06:16:30;;;;;;;;;;;22.10;62.70;;;22.53;40.03;98780.03;4968766;28;116212;-82
2023/07/13 06:18:56;;;;;;;;;;;21.30;61.50;;;22.52;39.73;98781.25;4973334;28;114729;-83
2023/07/13 06:21:23;;;;;;;;;;;22.10;61.60;;;22.55;39.49;98786.88;4981093;28;124447;-82
2023/07/13 06:23:50;;;;;;;;;;;22.20;61.40;;;22.57;39.38;98784.50;4985328;28;124393;-82
2023/07/13 06:26:19;;;;;;;;;;;22.20;61.00;;;22.63;39.14;98787.72;4983755;28;114889;-82
2023/07/13 06:28:47;;;;;;;;;;;22.20;60.80;;;22.68;39.06;98790.19;4975008;28;115515;-82
2023/07/13 06:31:14;;;;;;;;;;;22.30;60.80;;;22.72;39.01;98796.63;4988891;28;123653;-82
2023/07/13 06:33:41;;;;;;;;;;;22.30;60.70;;;22.75;38.89;98801.47;4982065;28;123874;-82
2023/07/13 06:36:08;;;;;;;;;;;22.40;60.70;;;22.80;38.80;98801.09;4986197;28;114977;-81
2023/07/13 06:38:34;;;;;;;;;;;22.40;60.60;;;22.88;38.91;98805.56;4979760;28;114406;-84
2023/07/13 06:41:04;;;;;;;;;;;22.40;60.60;;;22.99;38.84;98800.00;4984406;28;124038;-82
2023/07/13 06:43:35;;;;;;;;;;;22.50;60.50;;;23.08;38.28;98814.56;4985776;28;123995;-83
2023/07/13 06:46:01;;;;;;;;;;;22.60;60.40;;;23.15;38.26;98814.56;4988135;28;115192;-77
2023/07/13 06:48:30;;;;;;;;;;;22.60;60.20;;;23.24;37.90;98819.84;4989309;28;113917;-83
2023/07/13 06:50:56;;;;;;;;;;;22.70;60.10;;;23.32;37.80;98820.66;4988604;28;124322;-82
2023/07/13 06:53:23;;;;;;;;;;;22.80;59.90;;;23.41;37.77;98817.47;4996807;28;124541;-84
2023/07/13 06:55:50;;;;;;;;;;;22.80;59.70;;;23.48;37.54;98823.13;4989870;28;114582;-84
2023/07/13 06:58:20;;;;;;;;;;;23.00;59.60;;;23.53;37.33;98814.28;4989489;28;114376;-84
2023/07/13 07:00:46;;;;;;;;;;;23.00;59.30;;;23.62;36.96;98813.91;4988280;28;125142;-84
2023/07/13 07:03:15;;;;;;;;;;;23.10;59.00;;;23.67;36.83;98811.50;4968867;28;122937;-84
2023/07/13 07:05:41;;;;;;;;;;;23.10;58.70;;;23.71;36.97;98812.34;4986520;28;114521;-87
2023/07/13 07:08:07;;;;;;;;;;;23.20;58.60;;;23.75;36.25;98813.16;4991831;28;112190;-85
2023/07/13 07:10:37;;;;;;;;;;;23.20;58.10;;;23.83;36.28;98810.31;4975546;28;124280;-84
2023/07/13 07:13:04;;;;;;;;;;;23.20;57.80;;;23.90;36.16;98824.44;4990992;28;123987;-86
2023/07/13 07:15:30;;;;;;;;;;;23.30;57.90;;;23.96;35.83;98817.19;4988893;28;114672;-84
2023/07/13 07:17:56;;;;;;;;;;;23.40;57.40;;;24.03;35.59;98825.69;4975570;28;112701;-84
2023/07/13 07:20:23;;;;;;;;;;;23.50;57.00;;;24.06;35.62;98815.59;4990777;28;124383;-85
2023/07/13 07:22:49;;;;;;;;;;;23.60;56.80;;;24.08;35.53;98813.19;4990818;28;125112;-85
2023/07/13 07:25:16;;;;;;;;;;;23.60;56.60;;;24.15;35.65;98813.16;4991121;28;114177;-85
2023/07/13 07:27:42;;;;;;;;;;;23.60;56.60;;;24.24;35.31;98822.84;4985984;28;113780;-84
2023/07/13 07:30:09;;;;;;;;;;;23.70;56.60;;;24.28;34.56;98816.38;4985747;28;124501;-86
2023/07/13 07:32:40;;;;;;;;;;;23.70;55.90;;;24.28;34.71;98813.56;4989342;28;124236;-84
2023/07/13 07:35:09;;;;;;;;;;;23.80;55.80;;;24.32;34.09;98811.56;4988698;28;114509;-85
2023/07/13 07:37:35;;;;;;;;;;;23.80;54.70;;;24.36;33.92;98812.34;4988654;28;114027;-85
2023/07/13 07:40:02;;;;;;;;;;;23.90;54.40;;;24.41;33.63;98809.91;4987057;28;124230;-83
2023/07/13 07:42:29;;;;;;;;;;;23.90;54.30;;;24.47;33.58;98810.34;4988801;28;125066;-83
2023/07/13 07:44:55;;;;;;;;;;;23.90;53.90;;;24.52;33.20;98815.59;4988130;28;114366;-84
2023/07/13 07:47:23;;;;;;;;;;;24.00;53.60;;;24.55;33.22;98817.59;4973476;28;113482;-85
2023/07/13 07:49:49;;;;;;;;;;;24.00;53.50;;;24.61;33.06;98818.81;4989242;28;123431;-83
2023/07/13 07:52:15;;;;;;;;;;;24.10;53.30;;;24.64;32.90;98818.00;4991150;28;122366;-83
2023/07/13 07:54:41;;;;;;;;;;;24.10;53.30;;;24.69;33.22;98819.59;4987211;28;115006;-84
2023/07/13 07:57:08;;;;;;;;;;;24.20;53.20;;;24.73;33.00;98813.94;4986561;28;114641;-88
2023/07/13 07:59:38;;;;;;;;;;;24.20;53.30;;;24.79;33.00;98817.94;4985552;28;124743;-84
2023/07/13 08:02:05;;;;;;;;;;;24.30;53.40;;;24.87;33.20;98822.38;4975533;28;124400;-83
2023/07/13 08:04:31;;;;;;;;;;;24.30;53.40;;;24.94;32.76;98825.19;4982862;28;115322;-85
2023/07/13 08:06:58;;;;;;;;;;;24.40;53.20;;;25.00;32.86;98822.72;4984487;28;112962;-84
2023/07/13 08:09:24;;;;;;;;;;;24.50;53.10;;;25.09;32.48;98826.75;4977438;28;124277;-84
2023/07/13 08:11:52;;;;;;;;;;;24.50;52.90;;;25.14;32.03;98817.81;4987463;28;123857;-82
2023/07/13 08:14:18;;;;;;;;;;;24.50;52.00;;;25.12;31.56;98825.94;4989609;28;113893;-84
2023/07/13 08:16:44;;;;;;;;;;;24.70;51.40;;;25.11;31.59;98827.13;4987861;28;113594;-84
2023/07/13 08:19:11;;;;;;;;;;;24.70;51.50;;;25.10;32.07;98836.84;4986646;28;124216;-83
2023/07/13 08:21:37;;;;;;;;;;;24.60;51.30;;;25.09;32.05;98826.75;4987351;28;124597;-84
2023/07/13 08:24:06;;;;;;;;;;;24.70;51.30;;;25.08;31.85;98830.78;4987597;28;114441;-84
2023/07/13 08:26:32;;;;;;;;;;;24.70;51.20;;;25.07;31.92;98828.38;4988950;28;113775;-83
2023/07/13 08:29:00;;;;;;;;;;;24.70;50.90;;;25.08;31.42;98827.16;4987265;28;124707;-86
2023/07/13 08:31:27;;;;;;;;;;;24.70;50.80;;;25.06;31.48;98827.53;4986674;28;124775;-81
2023/07/13 08:33:53;;;;;;;;;;;24.70;50.50;;;25.10;31.77;98824.72;4985574;28;114373;-84
2023/07/13 08:36:19;;;;;;;;;;;24.70;50.70;;;25.13;31.70;98821.88;4986415;28;112748;-84
2023/07/13 08:38:45;;;;;;;;;;;24.70;50.90;;;25.16;31.60;98816.66;4987958;28;123082;-83
2023/07/13 08:41:14;;;;;;;;;;;24.70;50.60;;;25.14;31.70;98817.81;4987345;28;123912;-82
2023/07/13 08:43:42;;;;;;;;;;;24.70;51.00;;;25.14;32.39;98823.47;4973759;28;114352;-84
2023/07/13 08:46:13;;;;;;;;;;;24.20;51.10;;;25.14;32.33;98829.13;4958103;28;114177;-82
2023/07/13 08:49:10;;;;;;;;;;;24.70;51.50;;;25.19;32.46;98821.47;4988772;28;123284;-83
2023/07/13 08:51:43;;;;;;;;;;;24.80;51.90;;;25.28;32.32;98811.34;4991515;28;123193;-83
2023/07/13 08:54:20;;;;;;;;;;;24.90;51.90;;;25.31;32.05;98838.00;4984987;28;114420;-84
2023/07/13 08:56:49;;;;;;;;;;;24.90;51.70;;;25.28;32.10;98833.13;4987680;28;114222;-82
2023/07/13 08:59:18;;;;;;;;;;;24.90;51.40;;;25.27;32.40;98831.53;5002417;28;124757;-83
2023/07/13 09:02:06;;;;;;;;;;;24.90;51.40;;;25.23;32.60;98830.75;4987427;28;124177;-83
2023/07/13 09:04:43;;;;;;;;;;;24.90;51.40;;;25.26;32.06;98830.75;4984763;28;114556;-84
2023/07/13 09:07:40;;;;;;;;;;;24.90;51.60;;;25.28;32.39;98824.66;4976896;28;113668;-83
2023/07/13 09:10:21;;;;;;;;;;;25.00;51.40;;;25.28;32.52;98828.31;4986876;28;124003;-84
2023/07/13 09:12:50;;;;;;;;;;;24.90;51.50;;;25.36;32.05;98831.88;4969342;28;123206;-84
2023/07/13 09:15:28;;;;;;;;;;;25.00;51.60;;;25.44;32.09;98821.34;4989817;28;112912;-81
2023/07/13 09:17:58;;;;;;;;;;;25.00;51.40;;;25.49;31.99;98830.22;4989383;28;114659;-83
2023/07/13 09:20:47;;;;;;;;;;;25.10;51.50;;;25.53;31.66;98825.34;4980440;28;124343;-84
2023/07/13 09:23:20;;;;;;;;;;;25.10;51.30;;;25.60;31.60;98818.81;4979933;28;123917;-85
2023/07/13 09:25:50;;;;;;;;;;;25.20;51.10;;;25.66;31.17;98827.72;4974630;28;113633;-83
2023/07/13 09:28:25;;;;;;;;;;;25.20;50.50;;;25.63;31.51;98825.69;4985917;28;113781;-83
2023/07/13 09:30:54;;;;;;;;;;;25.20;50.60;;;25.61;31.42;98828.94;4985923;28;124135;-83
2023/07/13 09:33:23;;;;;;;;;;;25.10;50.60;;;25.60;31.57;98838.63;4984009;28;123781;-83
2023/07/13 09:35:50;;;;;;;;;;;25.20;50.40;;;25.57;31.63;98834.59;4982464;28;113660;-83
2023/07/13 09:38:19;;;;;;;;;;;25.20;50.20;;;25.56;31.06;98838.66;4980174;28;114719;-83
2023/07/13 09:40:52;;;;;;;;;;;25.20;49.90;;;25.56;31.64;98833.00;4977246;28;123666;-83
2023/07/13 09:43:20;;;;;;;;;;;25.20;50.10;;;25.63;31.11;98831.34;4983854;28;124212;-84
2023/07/13 09:45:48;;;;;;;;;;;25.30;50.20;;;25.68;31.12;98822.41;4983020;28;113613;-83
2023/07/13 09:48:15;;;;;;;;;;;25.30;50.20;;;25.76;31.22;98823.97;4985975;28;114557;-83
2023/07/13 09:50:45;;;;;;;;;;;25.40;50.20;;;25.88;31.25;98820.72;4983420;28;124786;-83
2023/07/13 09:53:20;;;;;;;;;;;25.40;50.40;;;26.02;31.18;98819.00;4987550;28;123233;-83
2023/07/13 09:55:47;;;;;;;;;;;25.50;50.20;;;26.13;30.77;98819.72;4985254;28;114272;-83
2023/07/13 09:58:17;;;;;;;;;;;25.60;50.10;;;26.20;30.31;98822.50;4969860;28;112773;-83
2023/07/13 10:00:58;;;;;;;;;;;25.70;48.70;;;26.19;30.09;98824.53;4981918;28;123554;-83
2023/07/13 10:03:30;;;;;;;;;;;25.70;48.60;;;26.23;30.33;98821.66;4987737;28;123030;-83
2023/07/13 10:06:09;;;;;;;;;;;25.80;48.80;;;26.25;30.32;98816.38;4968114;28;114156;-83
2023/07/13 10:08:36;;;;;;;;;;;25.80;48.50;;;26.24;29.95;98828.91;4992818;28;112886;-82
2023/07/13 10:11:18;;;;;;;;;;;25.80;48.50;;;26.23;30.06;98824.47;4969124;28;123528;-83
2023/07/13 10:13:59;;;;;;;;;;;25.90;48.50;;;26.26;30.51;98817.97;4969580;28;122848;-83
2023/07/13 10:16:28;;;;;;;;;;;25.90;48.60;;;26.29;30.15;98822.81;4975360;28;115168;-83
2023/07/13 10:19:20;;;;;;;;;;;25.90;48.60;;;26.31;30.43;98814.69;4987903;28;113572;-82
2023/07/13 10:21:54;;;;;;;;;;;26.00;48.40;;;26.39;30.13;98815.44;4980516;28;124331;-83
2023/07/13 10:24:24;;;;;;;;;;;26.00;48.90;;;26.44;29.81;98812.97;4988360;28;123793;-82
2023/07/13 10:27:04;;;;;;;;;;;26.00;48.10;;;26.48;30.13;98807.25;4985515;28;114720;-83
2023/07/13 10:29:36;;;;;;;;;;;26.00;48.20;;;26.52;29.93;98808.06;4986150;28;114329;-82
2023/07/13 10:32:09;;;;;;;;;;;26.00;48.20;;;26.60;30.17;98814.47;4989443;28;124097;-82
2023/07/13 10:34:36;;;;;;;;;;;26.10;48.50;;;26.71;30.46;98803.81;4987283;28;124080;-83
2023/07/13 10:37:05;;;;;;;;;;;26.20;48.80;;;26.82;28.93;98804.50;4987170;28;114213;-83
2023/07/13 10:39:32;;;;;;;;;;;26.30;47.70;;;26.85;29.00;98803.66;4989215;28;113779;-83
2023/07/13 10:42:02;;;;;;;;;;;26.30;47.40;;;26.88;29.37;98802.78;4983802;28;124408;-84
2023/07/13 10:44:30;;;;;;;;;;;26.40;47.30;;;26.91;28.96;98809.66;4986674;28;125637;-83
2023/07/13 10:47:02;;;;;;;;;;;26.40;46.70;;;26.90;29.06;98810.09;4989044;28;114992;-83
2023/07/13 10:49:31;;;;;;;;;;;26.50;47.00;;;26.92;28.97;98808.44;4989675;28;114632;-83
2023/07/13 10:51:58;;;;;;;;;;;26.50;46.70;;;26.92;28.32;98810.44;4986331;28;124244;-83
2023/07/13 10:54:30;;;;;;;;;;;26.60;46.10;;;26.92;28.30;98808.44;4988249;28;123482;-83
2023/07/13 10:57:20;;;;;;;;;;;26.60;46.00;;;26.86;28.36;98810.91;4988248;28;114677;-83
2023/07/13 11:00:08;;;;;;;;;;;26.60;45.70;;;26.86;28.79;98804.44;4963865;28;113530;-83
2023/07/13 11:02:35;;;;;;;;;;;26.50;45.80;;;26.88;28.38;98802.78;4987786;28;124651;-83
2023/07/13 11:05:27;;;;;;;;;;;26.60;45.90;;;26.92;28.65;98791.44;4973852;28;123326;-82
2023/07/13 11:08:16;;;;;;;;;;;26.60;45.60;;;26.96;28.22;98797.06;4971942;28;113001;-84
2023/07/13 11:10:47;;;;;;;;;;;26.60;45.60;;;26.94;28.83;98803.13;4988472;28;113881;-83
2023/07/13 11:13:57;;;;;;;;;;;26.60;45.90;;;26.93;28.54;98793.03;4990184;28;123551;-83
2023/07/13 11:16:27;;;;;;;;;;;26.60;45.60;;;26.94;28.53;98788.94;4986694;28;123877;-83
2023/07/13 11:19:06;;;;;;;;;;;26.60;45.80;;;26.96;28.39;98799.88;4987700;28;114363;-85